sensor_id;sensor_type;location;lat;lon;timestamp;temperature;humidity
46926;DHT22;32667;48.248;-1.700;2022-07-22T00:02:22;19.50;51.80
46926;DHT22;32667;48.248;-1.700;2022-07-22T00:04:48;19.40;51.80
46926;DHT22;32667;48.248;-1.700;2022-07-22T00:07:14;19.40;51.70
46926;DHT22;32667;48.248;-1.700;2022-07-22T00:09:40;19.50;51.80
46926;DHT22;32667;48.248;-1.700;2022-07-22T00:12:06;19.40;51.70
46926;DHT22;32667;48.248;-1.700;2022-07-22T00:14:32;19.40;51.60
46926;DHT22;32667;48.248;-1.700;2022-07-22T00:16:58;19.40;51.60
46926;DHT22;32667;48.248;-1.700;2022-07-22T00:19:24;19.50;51.70
46926;DHT22;32667;48.248;-1.700;2022-07-22T00:21:51;19.40;51.60
46926;DHT22;32667;48.248;-1.700;2022-07-22T00:24:17;19.30;51.60
46926;DHT22;32667;48.248;-1.700;2022-07-22T00:26:42;19.30;51.70
46926;DHT22;32667;48.248;-1.700;2022-07-22T00:29:09;19.30;51.70
46926;DHT22;32667;48.248;-1.700;2022-07-22T00:31:35;19.30;51.80
46926;DHT22;32667;48.248;-1.700;2022-07-22T00:34:01;19.20;51.70
46926;DHT22;32667;48.248;-1.700;2022-07-22T00:36:28;19.20;51.80
46926;DHT22;32667;48.248;-1.700;2022-07-22T00:38:54;19.20;51.70
46926;DHT22;32667;48.248;-1.700;2022-07-22T00:41:20;19.20;51.80
46926;DHT22;32667;48.248;-1.700;2022-07-22T00:44:12;19.20;51.70
46926;DHT22;32667;48.248;-1.700;2022-07-22T00:46:38;19.20;51.70
46926;DHT22;32667;48.248;-1.700;2022-07-22T00:49:05;19.20;51.70
46926;DHT22;32667;48.248;-1.700;2022-07-22T00:51:32;19.20;51.70
46926;DHT22;32667;48.248;-1.700;2022-07-22T00:53:59;19.20;51.70
46926;DHT22;32667;48.248;-1.700;2022-07-22T00:56:26;19.10;51.70
46926;DHT22;32667;48.248;-1.700;2022-07-22T00:58:54;19.10;51.80
46926;DHT22;32667;48.248;-1.700;2022-07-22T01:01:20;19.10;51.80
46926;DHT22;32667;48.248;-1.700;2022-07-22T01:03:46;19.10;51.80
46926;DHT22;32667;48.248;-1.700;2022-07-22T01:06:12;19.10;51.80
46926;DHT22;32667;48.248;-1.700;2022-07-22T01:08:39;19.10;51.80
46926;DHT22;32667;48.248;-1.700;2022-07-22T01:11:16;19.10;51.80
46926;DHT22;32667;48.248;-1.700;2022-07-22T01:13:44;19.00;51.80
46926;DHT22;32667;48.248;-1.700;2022-07-22T01:16:11;19.00;51.80
46926;DHT22;32667;48.248;-1.700;2022-07-22T01:18:38;19.00;51.80
46926;DHT22;32667;48.248;-1.700;2022-07-22T01:21:05;19.00;51.80
46926;DHT22;32667;48.248;-1.700;2022-07-22T01:23:31;19.00;51.80
46926;DHT22;32667;48.248;-1.700;2022-07-22T01:25:57;18.90;51.80
46926;DHT22;32667;48.248;-1.700;2022-07-22T01:28:23;18.90;51.80
46926;DHT22;32667;48.248;-1.700;2022-07-22T01:30:49;18.90;51.80
46926;DHT22;32667;48.248;-1.700;2022-07-22T01:33:22;18.90;51.80
46926;DHT22;32667;48.248;-1.700;2022-07-22T01:35:49;18.90;51.80
46926;DHT22;32667;48.248;-1.700;2022-07-22T01:38:16;18.90;51.80
46926;DHT22;32667;48.248;-1.700;2022-07-22T01:40:42;18.90;51.80
46926;DHT22;32667;48.248;-1.700;2022-07-22T01:43:08;18.90;51.80
46926;DHT22;32667;48.248;-1.700;2022-07-22T01:45:34;18.90;51.80
46926;DHT22;32667;48.248;-1.700;2022-07-22T01:48:01;18.90;51.80
46926;DHT22;32667;48.248;-1.700;2022-07-22T01:50:27;18.90;51.80
46926;DHT22;32667;48.248;-1.700;2022-07-22T01:52:53;18.90;51.80
46926;DHT22;32667;48.248;-1.700;2022-07-22T01:55:19;18.80;51.80
46926;DHT22;32667;48.248;-1.700;2022-07-22T01:57:45;18.80;51.80
46926;DHT22;32667;48.248;-1.700;2022-07-22T02:00:11;18.90;51.80
46926;DHT22;32667;48.248;-1.700;2022-07-22T02:02:37;18.80;51.70
46926;DHT22;32667;48.248;-1.700;2022-07-22T02:05:05;18.90;51.80
46926;DHT22;32667;48.248;-1.700;2022-07-22T02:07:32;18.90;51.70
46926;DHT22;32667;48.248;-1.700;2022-07-22T02:09:57;18.90;51.70
46926;DHT22;32667;48.248;-1.700;2022-07-22T02:12:24;18.90;51.70
46926;DHT22;32667;48.248;-1.700;2022-07-22T02:14:50;18.90;51.70
46926;DHT22;32667;48.248;-1.700;2022-07-22T02:17:15;18.90;51.60
46926;DHT22;32667;48.248;-1.700;2022-07-22T02:19:41;18.90;51.70
46926;DHT22;32667;48.248;-1.700;2022-07-22T02:22:07;18.90;51.70
46926;DHT22;32667;48.248;-1.700;2022-07-22T02:24:33;18.90;51.70
46926;DHT22;32667;48.248;-1.700;2022-07-22T02:26:59;18.90;51.80
46926;DHT22;32667;48.248;-1.700;2022-07-22T02:29:25;18.80;51.70
46926;DHT22;32667;48.248;-1.700;2022-07-22T02:31:52;18.90;51.70
46926;DHT22;32667;48.248;-1.700;2022-07-22T02:34:18;18.90;51.70
46926;DHT22;32667;48.248;-1.700;2022-07-22T02:36:43;18.90;51.60
46926;DHT22;32667;48.248;-1.700;2022-07-22T02:39:09;18.90;51.60
46926;DHT22;32667;48.248;-1.700;2022-07-22T02:41:35;19.00;51.60
46926;DHT22;32667;48.248;-1.700;2022-07-22T02:44:01;19.00;51.50
46926;DHT22;32667;48.248;-1.700;2022-07-22T02:46:27;19.00;51.40
46926;DHT22;32667;48.248;-1.700;2022-07-22T02:48:56;19.10;51.50
46926;DHT22;32667;48.248;-1.700;2022-07-22T02:51:22;19.10;51.50
46926;DHT22;32667;48.248;-1.700;2022-07-22T02:53:48;19.10;51.50
46926;DHT22;32667;48.248;-1.700;2022-07-22T02:56:14;19.10;51.40
46926;DHT22;32667;48.248;-1.700;2022-07-22T02:58:40;19.10;51.40
46926;DHT22;32667;48.248;-1.700;2022-07-22T03:01:06;19.20;51.50
46926;DHT22;32667;48.248;-1.700;2022-07-22T03:03:32;19.20;51.50
46926;DHT22;32667;48.248;-1.700;2022-07-22T03:05:58;19.20;51.40
46926;DHT22;32667;48.248;-1.700;2022-07-22T03:08:24;19.20;51.30
46926;DHT22;32667;48.248;-1.700;2022-07-22T03:10:51;19.30;51.40
46926;DHT22;32667;48.248;-1.700;2022-07-22T03:13:17;19.30;51.30
46926;DHT22;32667;48.248;-1.700;2022-07-22T03:15:43;19.30;51.30
46926;DHT22;32667;48.248;-1.700;2022-07-22T03:18:09;19.30;51.30
46926;DHT22;32667;48.248;-1.700;2022-07-22T03:20:35;19.30;51.40
46926;DHT22;32667;48.248;-1.700;2022-07-22T03:23:01;19.30;51.30
46926;DHT22;32667;48.248;-1.700;2022-07-22T03:25:26;19.30;51.40
46926;DHT22;32667;48.248;-1.700;2022-07-22T03:27:52;19.30;51.40
46926;DHT22;32667;48.248;-1.700;2022-07-22T03:30:18;19.30;51.40
46926;DHT22;32667;48.248;-1.700;2022-07-22T03:32:44;19.30;51.40
46926;DHT22;32667;48.248;-1.700;2022-07-22T03:35:14;19.30;51.40
46926;DHT22;32667;48.248;-1.700;2022-07-22T03:37:40;19.30;51.30
46926;DHT22;32667;48.248;-1.700;2022-07-22T03:40:07;19.40;51.40
46926;DHT22;32667;48.248;-1.700;2022-07-22T03:42:33;19.30;51.30
46926;DHT22;32667;48.248;-1.700;2022-07-22T03:44:58;19.40;51.40
46926;DHT22;32667;48.248;-1.700;2022-07-22T03:47:24;19.40;51.50
46926;DHT22;32667;48.248;-1.700;2022-07-22T03:49:50;19.40;51.40
46926;DHT22;32667;48.248;-1.700;2022-07-22T03:52:16;19.40;51.30
46926;DHT22;32667;48.248;-1.700;2022-07-22T03:54:42;19.40;51.30
46926;DHT22;32667;48.248;-1.700;2022-07-22T03:57:09;19.40;51.30
46926;DHT22;32667;48.248;-1.700;2022-07-22T03:59:35;19.50;51.40
46926;DHT22;32667;48.248;-1.700;2022-07-22T04:02:01;19.40;51.30
46926;DHT22;32667;48.248;-1.700;2022-07-22T04:04:27;19.50;51.30
46926;DHT22;32667;48.248;-1.700;2022-07-22T04:06:53;19.50;51.40
46926;DHT22;32667;48.248;-1.700;2022-07-22T04:09:19;19.50;51.40
46926;DHT22;32667;48.248;-1.700;2022-07-22T04:11:45;19.40;51.40
46926;DHT22;32667;48.248;-1.700;2022-07-22T04:14:11;19.50;51.50
46926;DHT22;32667;48.248;-1.700;2022-07-22T04:16:37;19.40;51.50
46926;DHT22;32667;48.248;-1.700;2022-07-22T04:19:04;19.40;51.50
46926;DHT22;32667;48.248;-1.700;2022-07-22T04:21:30;19.40;51.50
46926;DHT22;32667;48.248;-1.700;2022-07-22T04:23:56;19.40;51.50
46926;DHT22;32667;48.248;-1.700;2022-07-22T04:26:22;19.40;51.50
46926;DHT22;32667;48.248;-1.700;2022-07-22T04:28:48;19.40;51.50
46926;DHT22;32667;48.248;-1.700;2022-07-22T04:31:14;19.40;51.50
46926;DHT22;32667;48.248;-1.700;2022-07-22T04:33:40;19.40;51.50
46926;DHT22;32667;48.248;-1.700;2022-07-22T04:36:06;19.40;51.50
46926;DHT22;32667;48.248;-1.700;2022-07-22T04:38:32;19.40;51.50
46926;DHT22;32667;48.248;-1.700;2022-07-22T04:40:58;19.40;51.50
46926;DHT22;32667;48.248;-1.700;2022-07-22T04:43:24;19.40;51.50
46926;DHT22;32667;48.248;-1.700;2022-07-22T04:45:50;19.40;52.10
46926;DHT22;32667;48.248;-1.700;2022-07-22T04:48:16;19.40;51.50
46926;DHT22;32667;48.248;-1.700;2022-07-22T04:50:42;19.40;51.50
46926;DHT22;32667;48.248;-1.700;2022-07-22T04:53:08;19.50;51.50
46926;DHT22;32667;48.248;-1.700;2022-07-22T04:55:34;19.50;51.50
46926;DHT22;32667;48.248;-1.700;2022-07-22T04:58:00;19.50;51.50
46926;DHT22;32667;48.248;-1.700;2022-07-22T05:00:26;19.50;51.50
46926;DHT22;32667;48.248;-1.700;2022-07-22T05:02:52;19.50;51.50
46926;DHT22;32667;48.248;-1.700;2022-07-22T05:05:17;19.50;51.50
46926;DHT22;32667;48.248;-1.700;2022-07-22T05:07:43;19.50;51.60
46926;DHT22;32667;48.248;-1.700;2022-07-22T05:10:09;19.40;51.60
46926;DHT22;32667;48.248;-1.700;2022-07-22T05:12:35;19.40;51.60
46926;DHT22;32667;48.248;-1.700;2022-07-22T05:15:02;19.40;51.70
46926;DHT22;32667;48.248;-1.700;2022-07-22T05:17:28;19.40;51.70
46926;DHT22;32667;48.248;-1.700;2022-07-22T05:19:54;19.40;51.70
46926;DHT22;32667;48.248;-1.700;2022-07-22T05:22:19;19.30;51.70
46926;DHT22;32667;48.248;-1.700;2022-07-22T05:24:45;19.30;51.80
46926;DHT22;32667;48.248;-1.700;2022-07-22T05:27:11;19.40;51.80
46926;DHT22;32667;48.248;-1.700;2022-07-22T05:29:37;19.30;51.70
46926;DHT22;32667;48.248;-1.700;2022-07-22T05:32:03;19.40;51.70
46926;DHT22;32667;48.248;-1.700;2022-07-22T05:34:29;19.40;51.70
46926;DHT22;32667;48.248;-1.700;2022-07-22T05:36:55;19.40;51.70
46926;DHT22;32667;48.248;-1.700;2022-07-22T05:39:20;19.40;52.30
46926;DHT22;32667;48.248;-1.700;2022-07-22T05:41:46;19.40;51.60
46926;DHT22;32667;48.248;-1.700;2022-07-22T05:44:12;19.40;51.60
46926;DHT22;32667;48.248;-1.700;2022-07-22T05:46:38;19.40;51.60
46926;DHT22;32667;48.248;-1.700;2022-07-22T05:49:03;19.50;51.70
46926;DHT22;32667;48.248;-1.700;2022-07-22T05:51:29;19.50;51.60
46926;DHT22;32667;48.248;-1.700;2022-07-22T05:53:55;19.60;51.60
46926;DHT22;32667;48.248;-1.700;2022-07-22T05:56:21;19.60;51.50
46926;DHT22;32667;48.248;-1.700;2022-07-22T05:58:47;19.70;51.40
46926;DHT22;32667;48.248;-1.700;2022-07-22T06:01:13;19.70;51.30
46926;DHT22;32667;48.248;-1.700;2022-07-22T06:03:39;19.80;51.30
46926;DHT22;32667;48.248;-1.700;2022-07-22T06:06:05;19.80;51.20
46926;DHT22;32667;48.248;-1.700;2022-07-22T06:08:34;19.90;51.30
46926;DHT22;32667;48.248;-1.700;2022-07-22T06:11:00;19.90;51.30
46926;DHT22;32667;48.248;-1.700;2022-07-22T06:13:27;19.90;51.30
46926;DHT22;32667;48.248;-1.700;2022-07-22T06:15:52;19.90;51.30
46926;DHT22;32667;48.248;-1.700;2022-07-22T06:18:18;19.90;51.30
46926;DHT22;32667;48.248;-1.700;2022-07-22T06:20:44;19.90;51.40
46926;DHT22;32667;48.248;-1.700;2022-07-22T06:23:10;19.90;51.40
46926;DHT22;32667;48.248;-1.700;2022-07-22T06:25:36;20.00;51.40
46926;DHT22;32667;48.248;-1.700;2022-07-22T06:28:02;20.00;51.30
46926;DHT22;32667;48.248;-1.700;2022-07-22T06:30:28;20.10;51.30
46926;DHT22;32667;48.248;-1.700;2022-07-22T06:32:54;20.10;51.30
46926;DHT22;32667;48.248;-1.700;2022-07-22T06:35:20;20.10;51.20
46926;DHT22;32667;48.248;-1.700;2022-07-22T06:37:46;20.20;51.20
46926;DHT22;32667;48.248;-1.700;2022-07-22T06:40:12;20.20;51.20
46926;DHT22;32667;48.248;-1.700;2022-07-22T06:42:38;20.20;51.20
46926;DHT22;32667;48.248;-1.700;2022-07-22T06:45:05;20.30;51.20
46926;DHT22;32667;48.248;-1.700;2022-07-22T06:47:30;20.30;51.00
46926;DHT22;32667;48.248;-1.700;2022-07-22T06:49:57;20.40;50.90
46926;DHT22;32667;48.248;-1.700;2022-07-22T06:52:23;20.50;50.90
46926;DHT22;32667;48.248;-1.700;2022-07-22T06:54:49;20.50;50.90
46926;DHT22;32667;48.248;-1.700;2022-07-22T06:57:15;20.50;50.90
46926;DHT22;32667;48.248;-1.700;2022-07-22T06:59:41;20.60;50.90
46926;DHT22;32667;48.248;-1.700;2022-07-22T07:02:06;20.70;50.80
46926;DHT22;32667;48.248;-1.700;2022-07-22T07:04:32;20.70;50.70
46926;DHT22;32667;48.248;-1.700;2022-07-22T07:06:58;20.80;50.60
46926;DHT22;32667;48.248;-1.700;2022-07-22T07:09:24;21.00;50.50
46926;DHT22;32667;48.248;-1.700;2022-07-22T07:11:49;21.10;50.40
46926;DHT22;32667;48.248;-1.700;2022-07-22T07:14:15;21.20;50.20
46926;DHT22;32667;48.248;-1.700;2022-07-22T07:16:41;21.20;50.20
46926;DHT22;32667;48.248;-1.700;2022-07-22T07:19:07;21.30;50.30
46926;DHT22;32667;48.248;-1.700;2022-07-22T07:21:33;21.30;50.90
46926;DHT22;32667;48.248;-1.700;2022-07-22T07:23:59;21.30;50.30
46926;DHT22;32667;48.248;-1.700;2022-07-22T07:26:25;21.40;50.20
46926;DHT22;32667;48.248;-1.700;2022-07-22T07:28:51;21.50;50.20
46926;DHT22;32667;48.248;-1.700;2022-07-22T07:31:17;21.50;50.10
46926;DHT22;32667;48.248;-1.700;2022-07-22T07:33:43;21.60;50.20
46926;DHT22;32667;48.248;-1.700;2022-07-22T07:36:09;21.60;50.20
46926;DHT22;32667;48.248;-1.700;2022-07-22T07:38:35;21.60;50.20
46926;DHT22;32667;48.248;-1.700;2022-07-22T07:41:02;21.60;50.30
46926;DHT22;32667;48.248;-1.700;2022-07-22T07:43:27;21.50;50.40
46926;DHT22;32667;48.248;-1.700;2022-07-22T07:45:53;21.60;50.40
46926;DHT22;32667;48.248;-1.700;2022-07-22T07:48:19;21.60;50.40
46926;DHT22;32667;48.248;-1.700;2022-07-22T07:50:45;21.60;50.40
46926;DHT22;32667;48.248;-1.700;2022-07-22T07:53:15;21.60;50.50
46926;DHT22;32667;48.248;-1.700;2022-07-22T07:55:41;21.50;50.50
46926;DHT22;32667;48.248;-1.700;2022-07-22T07:58:07;21.50;50.50
46926;DHT22;32667;48.248;-1.700;2022-07-22T08:00:33;21.50;50.60
46926;DHT22;32667;48.248;-1.700;2022-07-22T08:03:01;21.50;50.60
46926;DHT22;32667;48.248;-1.700;2022-07-22T08:05:27;21.50;50.60
46926;DHT22;32667;48.248;-1.700;2022-07-22T08:07:53;21.60;50.60
46926;DHT22;32667;48.248;-1.700;2022-07-22T08:10:20;21.60;50.60
46926;DHT22;32667;48.248;-1.700;2022-07-22T08:12:47;21.60;50.50
46926;DHT22;32667;48.248;-1.700;2022-07-22T08:15:13;21.70;50.60
46926;DHT22;32667;48.248;-1.700;2022-07-22T08:17:39;21.70;50.50
46926;DHT22;32667;48.248;-1.700;2022-07-22T08:20:05;21.70;50.50
46926;DHT22;32667;48.248;-1.700;2022-07-22T08:22:31;21.70;50.50
46926;DHT22;32667;48.248;-1.700;2022-07-22T08:24:57;21.70;50.50
46926;DHT22;32667;48.248;-1.700;2022-07-22T08:27:23;21.70;50.50
46926;DHT22;32667;48.248;-1.700;2022-07-22T08:29:48;21.80;50.50
46926;DHT22;32667;48.248;-1.700;2022-07-22T08:32:14;21.80;50.50
46926;DHT22;32667;48.248;-1.700;2022-07-22T08:34:40;21.80;50.50
46926;DHT22;32667;48.248;-1.700;2022-07-22T08:37:06;21.80;50.50
46926;DHT22;32667;48.248;-1.700;2022-07-22T08:39:32;21.90;50.60
46926;DHT22;32667;48.248;-1.700;2022-07-22T08:42:00;21.90;50.60
46926;DHT22;32667;48.248;-1.700;2022-07-22T08:44:30;21.90;50.60
46926;DHT22;32667;48.248;-1.700;2022-07-22T08:46:56;21.90;50.60
46926;DHT22;32667;48.248;-1.700;2022-07-22T08:49:22;21.80;50.70
46926;DHT22;32667;48.248;-1.700;2022-07-22T08:51:48;21.70;50.80
46926;DHT22;32667;48.248;-1.700;2022-07-22T08:54:20;21.70;50.90
46926;DHT22;32667;48.248;-1.700;2022-07-22T08:56:50;21.60;51.00
46926;DHT22;32667;48.248;-1.700;2022-07-22T08:59:16;21.60;51.10
46926;DHT22;32667;48.248;-1.700;2022-07-22T09:02:08;21.60;51.10
46926;DHT22;32667;48.248;-1.700;2022-07-22T09:04:54;21.60;51.10
46926;DHT22;32667;48.248;-1.700;2022-07-22T09:07:41;21.60;51.10
46926;DHT22;32667;48.248;-1.700;2022-07-22T09:10:16;21.60;51.00
46926;DHT22;32667;48.248;-1.700;2022-07-22T09:12:53;21.70;51.10
46926;DHT22;32667;48.248;-1.700;2022-07-22T09:15:52;21.60;51.00
46926;DHT22;32667;48.248;-1.700;2022-07-22T09:18:19;21.60;51.00
46926;DHT22;32667;48.248;-1.700;2022-07-22T09:20:45;21.60;51.00
46926;DHT22;32667;48.248;-1.700;2022-07-22T09:23:17;21.60;51.10
46926;DHT22;32667;48.248;-1.700;2022-07-22T09:25:44;21.60;51.20
46926;DHT22;32667;48.248;-1.700;2022-07-22T09:28:13;21.60;51.20
46926;DHT22;32667;48.248;-1.700;2022-07-22T09:33:13;21.60;51.20
46926;DHT22;32667;48.248;-1.700;2022-07-22T09:35:39;21.60;51.20
46926;DHT22;32667;48.248;-1.700;2022-07-22T09:38:07;21.60;51.20
46926;DHT22;32667;48.248;-1.700;2022-07-22T09:40:35;21.50;51.20
46926;DHT22;32667;48.248;-1.700;2022-07-22T09:43:07;21.50;51.30
46926;DHT22;32667;48.248;-1.700;2022-07-22T09:45:50;21.50;51.30
46926;DHT22;32667;48.248;-1.700;2022-07-22T09:48:20;21.60;51.30
46926;DHT22;32667;48.248;-1.700;2022-07-22T09:50:47;21.60;51.20
46926;DHT22;32667;48.248;-1.700;2022-07-22T09:53:14;21.60;51.30
46926;DHT22;32667;48.248;-1.700;2022-07-22T09:55:40;21.50;51.20
46926;DHT22;32667;48.248;-1.700;2022-07-22T09:58:06;21.50;51.30
46926;DHT22;32667;48.248;-1.700;2022-07-22T10:00:38;21.50;51.30
46926;DHT22;32667;48.248;-1.700;2022-07-22T10:03:06;21.50;51.30
46926;DHT22;32667;48.248;-1.700;2022-07-22T10:05:35;21.50;51.30
46926;DHT22;32667;48.248;-1.700;2022-07-22T10:08:03;21.50;51.30
46926;DHT22;32667;48.248;-1.700;2022-07-22T10:10:30;21.60;51.30
46926;DHT22;32667;48.248;-1.700;2022-07-22T10:12:58;21.60;51.30
46926;DHT22;32667;48.248;-1.700;2022-07-22T10:15:26;21.60;51.20
46926;DHT22;32667;48.248;-1.700;2022-07-22T10:17:54;21.70;51.10
46926;DHT22;32667;48.248;-1.700;2022-07-22T10:20:23;21.70;51.10
46926;DHT22;32667;48.248;-1.700;2022-07-22T10:22:52;21.70;51.10
46926;DHT22;32667;48.248;-1.700;2022-07-22T10:25:20;21.60;51.20
46926;DHT22;32667;48.248;-1.700;2022-07-22T10:28:03;21.60;51.20
46926;DHT22;32667;48.248;-1.700;2022-07-22T10:30:32;21.60;51.30
46926;DHT22;32667;48.248;-1.700;2022-07-22T10:33:13;21.60;51.30
46926;DHT22;32667;48.248;-1.700;2022-07-22T10:38:11;21.70;51.30
46926;DHT22;32667;48.248;-1.700;2022-07-22T10:40:53;21.70;51.20
46926;DHT22;32667;48.248;-1.700;2022-07-22T10:43:21;21.80;51.20
46926;DHT22;32667;48.248;-1.700;2022-07-22T10:45:58;21.80;51.00
46926;DHT22;32667;48.248;-1.700;2022-07-22T10:51:12;21.90;51.00
46926;DHT22;32667;48.248;-1.700;2022-07-22T10:54:02;21.90;51.00
46926;DHT22;32667;48.248;-1.700;2022-07-22T10:56:28;22.00;51.00
46926;DHT22;32667;48.248;-1.700;2022-07-22T11:01:52;22.00;51.00
46926;DHT22;32667;48.248;-1.700;2022-07-22T11:04:26;21.90;51.10
46926;DHT22;32667;48.248;-1.700;2022-07-22T11:06:54;21.90;51.10
46926;DHT22;32667;48.248;-1.700;2022-07-22T11:09:22;21.90;51.20
46926;DHT22;32667;48.248;-1.700;2022-07-22T11:14:33;21.80;51.40
46926;DHT22;32667;48.248;-1.700;2022-07-22T11:17:06;21.80;51.50
46926;DHT22;32667;48.248;-1.700;2022-07-22T11:19:32;21.80;51.40
46926;DHT22;32667;48.248;-1.700;2022-07-22T11:22:01;21.80;51.30
46926;DHT22;32667;48.248;-1.700;2022-07-22T11:24:28;21.80;51.40
46926;DHT22;32667;48.248;-1.700;2022-07-22T11:26:55;21.80;51.50
46926;DHT22;32667;48.248;-1.700;2022-07-22T11:29:25;21.70;51.50
46926;DHT22;32667;48.248;-1.700;2022-07-22T11:31:52;21.70;51.50
46926;DHT22;32667;48.248;-1.700;2022-07-22T11:34:18;21.80;51.50
46926;DHT22;32667;48.248;-1.700;2022-07-22T11:36:46;21.90;51.40
46926;DHT22;32667;48.248;-1.700;2022-07-22T11:39:14;21.90;51.30
46926;DHT22;32667;48.248;-1.700;2022-07-22T11:41:40;22.00;51.20
46926;DHT22;32667;48.248;-1.700;2022-07-22T11:44:08;22.10;51.00
46926;DHT22;32667;48.248;-1.700;2022-07-22T11:46:41;22.30;50.90
46926;DHT22;32667;48.248;-1.700;2022-07-22T11:49:08;22.40;50.70
46926;DHT22;32667;48.248;-1.700;2022-07-22T11:51:37;22.50;50.60
46926;DHT22;32667;48.248;-1.700;2022-07-22T11:54:04;22.70;50.50
46926;DHT22;32667;48.248;-1.700;2022-07-22T11:56:31;22.80;50.30
46926;DHT22;32667;48.248;-1.700;2022-07-22T11:58:57;22.90;50.10
46926;DHT22;32667;48.248;-1.700;2022-07-22T12:01:28;23.00;50.00
46926;DHT22;32667;48.248;-1.700;2022-07-22T12:03:57;23.10;50.00
46926;DHT22;32667;48.248;-1.700;2022-07-22T12:06:24;23.10;50.10
46926;DHT22;32667;48.248;-1.700;2022-07-22T12:08:54;23.10;50.10
46926;DHT22;32667;48.248;-1.700;2022-07-22T12:11:22;23.10;50.20
46926;DHT22;32667;48.248;-1.700;2022-07-22T12:13:51;23.20;50.80
46926;DHT22;32667;48.248;-1.700;2022-07-22T12:16:22;23.30;50.20
46926;DHT22;32667;48.248;-1.700;2022-07-22T12:21:31;23.50;49.90
46926;DHT22;32667;48.248;-1.700;2022-07-22T12:24:03;23.70;49.80
46926;DHT22;32667;48.248;-1.700;2022-07-22T12:26:57;23.80;49.60
46926;DHT22;32667;48.248;-1.700;2022-07-22T12:29:28;24.00;49.50
46926;DHT22;32667;48.248;-1.700;2022-07-22T12:32:02;24.00;49.40
46926;DHT22;32667;48.248;-1.700;2022-07-22T12:42:23;24.20;49.50
46926;DHT22;32667;48.248;-1.700;2022-07-22T12:47:50;24.00;49.80
46926;DHT22;32667;48.248;-1.700;2022-07-22T12:50:33;23.90;50.10
46926;DHT22;32667;48.248;-1.700;2022-07-22T12:53:08;23.70;50.30
46926;DHT22;32667;48.248;-1.700;2022-07-22T12:55:38;23.60;50.50
46926;DHT22;32667;48.248;-1.700;2022-07-22T12:58:06;23.50;50.70
46926;DHT22;32667;48.248;-1.700;2022-07-22T13:00:35;23.50;50.80
46926;DHT22;32667;48.248;-1.700;2022-07-22T13:03:01;23.50;50.90
46926;DHT22;32667;48.248;-1.700;2022-07-22T13:05:27;23.50;50.70
46926;DHT22;32667;48.248;-1.700;2022-07-22T13:07:53;23.60;50.60
46926;DHT22;32667;48.248;-1.700;2022-07-22T13:10:23;23.70;50.50
46926;DHT22;32667;48.248;-1.700;2022-07-22T13:12:50;23.70;50.40
46926;DHT22;32667;48.248;-1.700;2022-07-22T13:15:16;23.70;50.30
46926;DHT22;32667;48.248;-1.700;2022-07-22T13:17:42;23.70;50.30
46926;DHT22;32667;48.248;-1.700;2022-07-22T13:20:09;23.70;50.40
46926;DHT22;32667;48.248;-1.700;2022-07-22T13:22:36;23.80;50.40
46926;DHT22;32667;48.248;-1.700;2022-07-22T13:25:02;23.80;50.30
46926;DHT22;32667;48.248;-1.700;2022-07-22T13:27:28;23.90;50.30
46926;DHT22;32667;48.248;-1.700;2022-07-22T13:29:54;24.00;50.20
46926;DHT22;32667;48.248;-1.700;2022-07-22T13:32:20;24.00;50.20
46926;DHT22;32667;48.248;-1.700;2022-07-22T13:34:46;24.00;50.20
46926;DHT22;32667;48.248;-1.700;2022-07-22T13:37:11;23.90;50.40
46926;DHT22;32667;48.248;-1.700;2022-07-22T13:39:37;23.80;50.40
46926;DHT22;32667;48.248;-1.700;2022-07-22T13:42:04;23.80;50.50
46926;DHT22;32667;48.248;-1.700;2022-07-22T13:44:29;23.80;50.60
46926;DHT22;32667;48.248;-1.700;2022-07-22T13:46:59;23.70;50.60
46926;DHT22;32667;48.248;-1.700;2022-07-22T13:49:25;23.70;50.70
46926;DHT22;32667;48.248;-1.700;2022-07-22T13:51:51;23.70;50.70
46926;DHT22;32667;48.248;-1.700;2022-07-22T13:54:18;23.70;50.60
46926;DHT22;32667;48.248;-1.700;2022-07-22T13:56:44;23.70;50.60
46926;DHT22;32667;48.248;-1.700;2022-07-22T13:59:13;23.80;50.60
46926;DHT22;32667;48.248;-1.700;2022-07-22T14:01:39;23.80;50.60
46926;DHT22;32667;48.248;-1.700;2022-07-22T14:04:05;23.70;50.50
46926;DHT22;32667;48.248;-1.700;2022-07-22T14:06:32;23.70;50.60
46926;DHT22;32667;48.248;-1.700;2022-07-22T14:08:58;23.70;50.60
46926;DHT22;32667;48.248;-1.700;2022-07-22T14:11:24;23.70;50.70
46926;DHT22;32667;48.248;-1.700;2022-07-22T14:13:51;23.60;50.80
46926;DHT22;32667;48.248;-1.700;2022-07-22T14:16:17;23.40;51.00
46926;DHT22;32667;48.248;-1.700;2022-07-22T14:19:16;23.30;51.10
46926;DHT22;32667;48.248;-1.700;2022-07-22T14:21:43;23.20;51.20
46926;DHT22;32667;48.248;-1.700;2022-07-22T14:24:10;23.20;51.30
46926;DHT22;32667;48.248;-1.700;2022-07-22T14:26:37;23.10;51.40
46926;DHT22;32667;48.248;-1.700;2022-07-22T14:29:04;22.90;51.50
46926;DHT22;32667;48.248;-1.700;2022-07-22T14:31:30;22.80;51.70
46926;DHT22;32667;48.248;-1.700;2022-07-22T14:33:56;22.70;51.80
46926;DHT22;32667;48.248;-1.700;2022-07-22T14:36:22;22.70;51.80
46926;DHT22;32667;48.248;-1.700;2022-07-22T14:38:48;22.70;51.80
46926;DHT22;32667;48.248;-1.700;2022-07-22T14:41:19;22.70;51.70
46926;DHT22;32667;48.248;-1.700;2022-07-22T14:43:46;22.90;51.50
46926;DHT22;32667;48.248;-1.700;2022-07-22T14:46:14;23.00;51.30
46926;DHT22;32667;48.248;-1.700;2022-07-22T14:48:40;23.10;51.00
46926;DHT22;32667;48.248;-1.700;2022-07-22T14:51:06;23.10;50.90
46926;DHT22;32667;48.248;-1.700;2022-07-22T14:53:33;23.20;50.90
46926;DHT22;32667;48.248;-1.700;2022-07-22T14:55:59;23.30;50.80
46926;DHT22;32667;48.248;-1.700;2022-07-22T14:58:25;23.40;50.60
46926;DHT22;32667;48.248;-1.700;2022-07-22T15:00:52;23.50;50.50
46926;DHT22;32667;48.248;-1.700;2022-07-22T15:03:18;23.60;50.40
46926;DHT22;32667;48.248;-1.700;2022-07-22T15:05:44;23.70;50.40
46926;DHT22;32667;48.248;-1.700;2022-07-22T15:08:10;23.70;50.20
46926;DHT22;32667;48.248;-1.700;2022-07-22T15:10:36;23.80;50.20
46926;DHT22;32667;48.248;-1.700;2022-07-22T15:13:03;23.80;50.30
46926;DHT22;32667;48.248;-1.700;2022-07-22T15:15:29;23.70;50.30
46926;DHT22;32667;48.248;-1.700;2022-07-22T15:17:55;23.70;50.40
46926;DHT22;32667;48.248;-1.700;2022-07-22T15:20:21;23.70;50.50
46926;DHT22;32667;48.248;-1.700;2022-07-22T15:22:47;23.70;50.50
46926;DHT22;32667;48.248;-1.700;2022-07-22T15:25:13;23.70;50.50
46926;DHT22;32667;48.248;-1.700;2022-07-22T15:27:38;23.70;50.50
46926;DHT22;32667;48.248;-1.700;2022-07-22T15:30:07;23.70;50.50
46926;DHT22;32667;48.248;-1.700;2022-07-22T15:32:34;23.70;50.50
46926;DHT22;32667;48.248;-1.700;2022-07-22T15:35:00;23.70;50.60
46926;DHT22;32667;48.248;-1.700;2022-07-22T15:37:26;23.70;50.50
46926;DHT22;32667;48.248;-1.700;2022-07-22T15:39:51;23.70;50.50
46926;DHT22;32667;48.248;-1.700;2022-07-22T15:42:17;23.80;50.40
46926;DHT22;32667;48.248;-1.700;2022-07-22T15:44:43;23.90;50.30